Dallas Love Field
KDAL : rendu visible

Aérodrome :











RETROUVEZ-NOUS SUR...

 
LOGIN :

S'inscrire | Disclaimer

   EN    FR    IT 

 









Légende :    VFR   VFR Marginal   IFR   IFR Intensif   IFR Très Intensif
Visi : 
Plafond : 
>= 8 km
>= 3000ft
5 à 8 km
1000 à 3000 ft
1500m à 5 km
500 à 1000 ft
800 à 1500m
200 à 500 ft
< 800m
< 200 ft
Symboles :   Orages  Brouillard  Fortes neiges  Fortes précipitations  Vent > 20 kt






- Altitude de l'aérodrome : 487 ft
- Code IATA : DAL


KDAL - Dallas Love Field

DERNIER METAR :
  • 040253Z 36010KT 10SM BKN009 OVC015 06/03 A3010 RMK AO2 SLP190 T00560033 53010

METARs EXPIRÉS :
  • 040153Z 35014KT 10SM BKN009 OVC013 06/03 A3007 RMK AO2 SLP181 T00560028
  • 040053Z 34009G26KT 10SM BKN008 BKN010 OVC017 06/03 A3006 RMK AO2 PK WND 26026/0046 SLP178 T00610033

TAF KDAL
Valide du 04 à 03h jusqu'au 05 à 00h UTC


040301Z 0403/0424 34009KT P6SM VCTS OVC009CB
FM040800 35008KT P6SM VCSH OVC009
FM041600 34007KT 5SM -SHRA BR OVC008
FM042100 01006KT P6SM BKN015



MET'MAP, la Météo Aéronautique d'un coup d'oeil ! - Copyright ORBIFLY Décembre 2007 - Disclaimer

ORBIFLY MET'MAP TEAM :

Programmation & Développement : Alexandra Zaïnal
Sur une idée originale de : Baudouin d'Aumeries
Assistance à la programmation : Marc-Olivier Méhu
Soutien technique & logistique : Manuel Goepfert

Contact : metmap@orbifly.com




SOURCES & CREDITS :

   NOAA       Earth
Advisory